Time;durP1;ratioP1;P1;durP2;ratioP2;P2;SDS_P1;SDS_P2;PMS_P1;PMS_P2;Temp;Humidity;BMP_temperature;BMP_pressure;BME280_temperature;BME280_humidity;BME280_pressure;Samples;Min_cycle;Max_cycle;Signal;HPM_P1;HPM_P2
2023/04/19 00:00:37;;;;;;;5.75;5.25;;;19.30;59.80;;;;;;5039545;28;20564;-51
2023/04/19 00:03:03;;;;;;;6.07;5.13;;;19.30;59.80;;;;;;5037948;28;20204;-53
2023/04/19 00:05:28;;;;;;;5.78;5.03;;;19.30;59.80;;;;;;5038993;28;20493;-50
2023/04/19 00:07:54;;;;;;;5.70;5.07;;;19.30;59.80;;;;;;5036106;28;20761;-51
2023/04/19 00:10:20;;;;;;;5.82;5.22;;;19.20;59.70;;;;;;5035659;28;20036;-51
2023/04/19 00:12:45;;;;;;;6.80;5.32;;;19.30;59.80;;;;;;5036269;28;20021;-52
2023/04/19 00:15:11;;;;;;;6.05;4.95;;;19.30;59.80;;;;;;5034524;28;20025;-52
2023/04/19 00:17:36;;;;;;;5.60;5.00;;;19.30;59.80;;;;;;5026440;22;20045;-48
2023/04/19 00:20:04;;;;;;;5.20;4.70;;;19.30;59.80;;;;;;5011687;28;20040;-49
2023/04/19 00:22:29;;;;;;;5.57;5.00;;;19.20;59.70;;;;;;5010351;28;20029;-53
2023/04/19 00:24:55;;;;;;;6.00;4.85;;;19.20;59.70;;;;;;5015983;28;20487;-49
2023/04/19 00:27:20;;;;;;;5.35;4.70;;;19.20;59.70;;;;;;5015161;28;20045;-56
2023/04/19 00:29:46;;;;;;;5.20;4.70;;;19.20;59.70;;;;;;5010075;28;20038;-54
2023/04/19 00:32:11;;;;;;;5.90;5.13;;;19.20;59.70;;;;;;5013803;28;20112;-49
2023/04/19 00:34:37;;;;;;;6.03;5.07;;;19.20;59.70;;;;;;5015240;28;20025;-50
2023/04/19 00:37:05;;;;;;;5.65;4.60;;;19.20;59.70;;;;;;5013893;28;20490;-48
2023/04/19 00:39:31;;;;;;;6.75;5.40;;;19.20;59.70;;;;;;5014242;28;20124;-48
2023/04/19 00:41:57;;;;;;;5.03;4.53;;;19.20;59.70;;;;;;5010874;28;20327;-51
2023/04/19 00:44:23;;;;;;;5.38;4.63;;;19.20;59.80;;;;;;5011608;28;20230;-54
2023/04/19 00:46:49;;;;;;;5.95;4.90;;;19.20;59.70;;;;;;5012192;28;20069;-54
2023/04/19 00:49:16;;;;;;;5.35;4.78;;;19.20;59.70;;;;;;5012837;28;20135;-53
2023/04/19 00:51:42;;;;;;;5.30;4.38;;;19.20;59.70;;;;;;5009686;28;20057;-57
2023/04/19 00:54:08;;;;;;;6.05;4.80;;;19.20;59.70;;;;;;5013685;28;20061;-50
2023/04/19 00:56:34;;;;;;;4.60;4.13;;;19.20;59.70;;;;;;5013168;28;20031;-48
2023/04/19 00:59:00;;;;;;;4.88;4.38;;;19.20;59.70;;;;;;5006042;28;20104;-49
2023/04/19 01:01:26;;;;;;;5.50;4.78;;;19.20;59.70;;;;;;5015781;28;20253;-48
2023/04/19 01:03:51;;;;;;;4.80;4.32;;;19.20;59.70;;;;;;5010695;28;20499;-55
2023/04/19 01:06:17;;;;;;;5.22;4.72;;;19.20;59.80;;;;;;5015119;28;20041;-55
2023/04/19 01:08:43;;;;;;;5.68;4.60;;;19.20;59.70;;;;;;5011976;28;20113;-59
2023/04/19 01:11:08;;;;;;;5.65;4.93;;;19.20;59.70;;;;;;5010428;28;20030;-48
2023/04/19 01:13:34;;;;;;;4.95;4.50;;;19.20;59.70;;;;;;5013269;28;20026;-48
2023/04/19 01:15:59;;;;;;;4.45;4.05;;;19.20;59.70;;;;;;5012851;28;20030;-54
2023/04/19 01:18:31;;;;;;;5.22;4.60;;;19.20;59.70;;;;;;5012334;28;20018;-55
2023/04/19 01:20:57;;;;;;;5.47;4.47;;;19.20;59.70;;;;;;5008826;28;20045;-51
2023/04/19 01:23:23;;;;;;;5.65;4.75;;;19.20;59.60;;;;;;5014389;28;20033;-55
2023/04/19 01:25:49;;;;;;;5.13;4.32;;;19.20;59.60;;;;;;5008424;28;20538;-48
2023/04/19 01:28:14;;;;;;;4.80;4.30;;;19.20;59.60;;;;;;5015428;28;20057;-51
2023/04/19 01:30:40;;;;;;;6.13;4.50;;;19.20;59.60;;;;;;5013719;28;20280;-49
2023/04/19 01:33:06;;;;;;;4.93;4.43;;;19.20;59.70;;;;;;5014925;28;20493;-56
2023/04/19 01:35:31;;;;;;;4.72;4.28;;;19.20;59.60;;;;;;5014497;28;20045;-51
2023/04/19 01:37:56;;;;;;;5.70;4.93;;;19.10;59.60;;;;;;5010864;28;20033;-57
2023/04/19 01:40:25;;;;;;;4.60;4.15;;;19.10;59.60;;;;;;5008828;28;20442;-53
2023/04/19 01:42:51;;;;;;;5.18;4.65;;;19.10;59.60;;;;;;5010962;28;20464;-52
2023/04/19 01:45:17;;;;;;;5.20;4.60;;;19.20;59.60;;;;;;5011223;28;20033;-51
2023/04/19 01:47:43;;;;;;;3.92;3.60;;;19.20;59.60;;;;;;5011972;28;20064;-51
2023/04/19 01:50:08;;;;;;;5.22;4.53;;;19.20;59.60;;;;;;5011900;28;20072;-56
2023/04/19 01:52:34;;;;;;;5.60;4.75;;;19.10;59.50;;;;;;5010837;28;20034;-54
2023/04/19 01:55:00;;;;;;;4.20;3.80;;;19.20;59.50;;;;;;5008970;28;20037;-48
2023/04/19 01:57:25;;;;;;;4.35;3.95;;;19.10;59.50;;;;;;5011283;28;20132;-54
2023/04/19 01:59:52;;;;;;;6.13;3.83;;;19.20;59.50;;;;;;5015325;28;20037;-56
2023/04/19 02:02:18;;;;;;;4.53;4.13;;;19.20;59.50;;;;;;5014964;28;20095;-50
2023/04/19 02:04:44;;;;;;;5.20;4.30;;;19.20;59.50;;;;;;5013237;28;20030;-50
2023/04/19 02:07:09;;;;;;;4.35;3.95;;;19.20;59.50;;;;;;5012127;28;20483;-50
2023/04/19 02:09:36;;;;;;;4.20;3.65;;;19.10;59.40;;;;;;5011773;28;20128;-52
2023/04/19 02:12:02;;;;;;;4.70;3.40;;;19.10;59.50;;;;;;5008627;28;20061;-49
2023/04/19 02:14:28;;;;;;;4.13;3.72;;;19.10;59.50;;;;;;5015062;28;20030;-48
2023/04/19 02:16:53;;;;;;;3.80;3.40;;;19.10;59.50;;;;;;5015912;28;20116;-53
2023/04/19 02:19:19;;;;;;;4.10;3.70;;;19.10;59.50;;;;;;5016274;28;20105;-55
2023/04/19 02:21:44;;;;;;;4.03;3.70;;;19.10;59.80;;;;;;5016833;28;20614;-48
2023/04/19 02:24:10;;;;;;;4.60;4.20;;;19.10;59.60;;;;;;5019084;28;20140;-53
2023/04/19 02:26:35;;;;;;;4.13;3.72;;;19.00;59.60;;;;;;5018226;28;20402;-51
2023/04/19 02:29:01;;;;;;;4.40;3.80;;;19.00;59.60;;;;;;5012361;28;20034;-56
2023/04/19 02:31:27;;;;;;;4.90;3.47;;;19.00;59.60;;;;;;5019249;28;20060;-54
2023/04/19 02:33:52;;;;;;;4.18;3.78;;;19.00;59.60;;;;;;5018222;28;20037;-50
2023/04/19 02:36:18;;;;;;;3.50;3.20;;;19.00;59.70;;;;;;5016078;28;20467;-54
2023/04/19 02:38:43;;;;;;;3.53;3.22;;;19.00;59.70;;;;;;5015553;28;20025;-58
2023/04/19 02:41:09;;;;;;;4.78;3.35;;;19.00;59.70;;;;;;5012311;28;20495;-52
2023/04/19 02:43:34;;;;;;;4.18;3.78;;;19.00;59.80;;;;;;5013624;28;20459;-50
2023/04/19 02:46:00;;;;;;;4.07;3.42;;;19.00;59.80;;;;;;5015010;28;20041;-54
2023/04/19 02:48:26;;;;;;;4.43;3.65;;;18.90;59.70;;;;;;5012475;28;20127;-51
2023/04/19 02:50:51;;;;;;;5.47;3.83;;;19.00;59.80;;;;;;5015266;28;20085;-51
2023/04/19 02:53:17;;;;;;;5.47;3.42;;;18.90;59.80;;;;;;5013922;28;20053;-50
2023/04/19 02:55:42;;;;;;;4.78;3.47;;;19.00;59.80;;;;;;5009742;28;20030;-56
2023/04/19 02:58:08;;;;;;;4.85;3.20;;;18.90;59.80;;;;;;5013362;28;20042;-55
2023/04/19 03:00:33;;;;;;;5.38;3.40;;;19.00;59.80;;;;;;5015382;28;20495;-49
2023/04/19 03:03:01;;;;;;;3.70;3.40;;;18.90;59.80;;;;;;5016597;28;20037;-49
2023/04/19 03:05:26;;;;;;;5.65;3.00;;;18.90;59.70;;;;;;5016272;28;20033;-53
2023/04/19 03:07:52;;;;;;;4.93;3.63;;;18.90;59.70;;;;;;5013080;28;20045;-51
2023/04/19 03:10:17;;;;;;;3.30;3.00;;;18.90;59.60;;;;;;5014683;28;20235;-49
2023/04/19 03:12:43;;;;;;;6.13;2.95;;;18.90;59.60;;;;;;5013408;28;20124;-54
2023/04/19 03:15:09;;;;;;;4.07;2.83;;;19.00;59.60;;;;;;5013878;28;20042;-50
2023/04/19 03:17:36;;;;;;;4.70;3.25;;;19.00;59.60;;;;;;5012978;28;20259;-55
2023/04/19 03:20:01;;;;;;;3.85;3.38;;;19.00;59.60;;;;;;5011319;28;20357;-50
2023/04/19 03:22:27;;;;;;;3.30;3.00;;;19.00;59.60;;;;;;5019086;28;20404;-51
2023/04/19 03:24:52;;;;;;;3.15;2.85;;;19.00;59.60;;;;;;5015803;28;20352;-55
2023/04/19 03:27:18;;;;;;;3.70;3.03;;;19.00;59.50;;;;;;5016442;28;20026;-48
2023/04/19 03:29:43;;;;;;;3.72;2.83;;;19.00;59.50;;;;;;5017215;28;20036;-56
2023/04/19 03:32:09;;;;;;;4.03;2.90;;;19.00;59.40;;;;;;5014214;28;20117;-55
2023/04/19 03:34:34;;;;;;;3.65;3.30;;;19.00;59.40;;;;;;5016441;28;20033;-49
2023/04/19 03:37:00;;;;;;;4.63;3.25;;;19.00;59.40;;;;;;5011358;28;20034;-52
2023/04/19 03:39:25;;;;;;;4.93;3.58;;;19.00;59.40;;;;;;5012461;28;20675;-51
2023/04/19 03:41:51;;;;;;;5.07;3.20;;;19.00;59.30;;;;;;5009786;28;20037;-48
2023/04/19 03:44:16;;;;;;;3.42;3.10;;;19.00;59.40;;;;;;5014603;28;20029;-51
2023/04/19 03:46:42;;;;;;;3.45;2.88;;;19.00;59.30;;;;;;5012516;28;20128;-56
2023/04/19 03:49:07;;;;;;;4.05;3.05;;;19.00;59.30;;;;;;5014114;28;20033;-49
2023/04/19 03:51:32;;;;;;;3.08;2.80;;;19.00;59.30;;;;;;5014594;28;20184;-53
2023/04/19 03:53:59;;;;;;;3.60;2.92;;;19.00;59.20;;;;;;5015775;28;20109;-56
2023/04/19 03:56:24;;;;;;;3.35;3.05;;;19.00;59.20;;;;;;5017860;28;20025;-51
2023/04/19 03:58:50;;;;;;;3.10;2.80;;;19.00;59.20;;;;;;5013950;28;20032;-58
2023/04/19 04:01:20;;;;;;;3.10;2.80;;;19.00;59.20;;;;;;5009050;28;20044;-57
2023/04/19 04:03:45;;;;;;;3.33;3.03;;;19.00;59.20;;;;;;5015620;28;20026;-49
2023/04/19 04:06:11;;;;;;;5.07;2.85;;;19.00;59.20;;;;;;5007369;28;20044;-50
2023/04/19 04:08:36;;;;;;;4.10;3.10;;;19.00;59.20;;;;;;5010813;28;20529;-55
2023/04/19 04:11:02;;;;;;;3.83;3.42;;;19.00;59.20;;;;;;5010816;28;20033;-48
2023/04/19 04:13:27;;;;;;;4.90;3.70;;;19.00;59.20;;;;;;5013804;28;20029;-50
2023/04/19 04:15:53;;;;;;;3.55;2.50;;;19.00;59.20;;;;;;5015056;28;20038;-59
2023/04/19 04:18:18;;;;;;;3.03;2.63;;;19.00;59.00;;;;;;5010374;28;20033;-52
2023/04/19 04:20:44;;;;;;;5.50;3.53;;;19.00;59.10;;;;;;5013200;28;20057;-54
2023/04/19 04:23:09;;;;;;;8.23;5.47;;;19.00;59.00;;;;;;5008998;28;20109;-49
2023/04/19 04:25:36;;;;;;;12.48;7.38;;;19.00;59.00;;;;;;5014624;28;20036;-53
2023/04/19 04:28:02;;;;;;;14.43;7.00;;;19.00;59.10;;;;;;5010063;28;20050;-51
2023/04/19 04:30:28;;;;;;;11.82;6.47;;;19.00;59.10;;;;;;5013489;28;20029;-52
2023/04/19 04:32:56;;;;;;;11.57;7.25;;;19.00;59.10;;;;;;5010567;28;20107;-50
2023/04/19 04:35:22;;;;;;;12.57;6.78;;;19.00;59.10;;;;;;5010965;28;20035;-49
2023/04/19 04:37:48;;;;;;;13.00;6.20;;;19.00;59.00;;;;;;5009653;28;20038;-51
2023/04/19 04:40:14;;;;;;;17.70;9.63;;;18.90;59.00;;;;;;5009208;28;20042;-56
2023/04/19 04:42:40;;;;;;;21.10;14.05;;;18.90;59.00;;;;;;5017604;28;20029;-52
2023/04/19 04:45:06;;;;;;;25.67;16.90;;;19.00;59.20;;;;;;5016197;28;20574;-55
2023/04/19 04:47:33;;;;;;;25.27;15.13;;;19.00;59.30;;;;;;5013505;28;20041;-58
2023/04/19 04:49:59;;;;;;;24.48;14.90;;;19.00;59.40;;;;;;5012621;28;20360;-51
2023/04/19 04:52:25;;;;;;;27.50;16.48;;;19.00;59.50;;;;;;5015740;28;20033;-49
2023/04/19 04:54:50;;;;;;;27.08;15.50;;;19.00;59.50;;;;;;5015710;28;20087;-53
2023/04/19 04:57:16;;;;;;;23.45;13.90;;;19.00;59.60;;;;;;5006968;28;20038;-51
2023/04/19 04:59:41;;;;;;;26.17;14.18;;;19.00;59.50;;;;;;5009254;28;20619;-48
2023/04/19 05:02:06;;;;;;;28.40;13.75;;;19.00;59.50;;;;;;5012714;28;20036;-51
2023/04/19 05:04:32;;;;;;;22.70;13.23;;;19.00;59.40;;;;;;5013076;28;20475;-55
2023/04/19 05:06:58;;;;;;;23.73;12.80;;;18.90;59.30;;;;;;5009309;28;20048;-57
2023/04/19 05:09:23;;;;;;;28.73;12.48;;;18.90;59.20;;;;;;5005323;28;20060;-57
2023/04/19 05:11:49;;;;;;;20.10;11.82;;;19.00;59.20;;;;;;5017049;28;20042;-50
2023/04/19 05:14:14;;;;;;;20.95;11.43;;;19.00;59.20;;;;;;5011496;28;20030;-52
2023/04/19 05:16:40;;;;;;;21.83;11.35;;;19.00;59.20;;;;;;5012702;28;20313;-57
2023/04/19 05:19:05;;;;;;;18.88;10.80;;;18.90;59.20;;;;;;5013606;28;20026;-53
2023/04/19 05:21:33;;;;;;;17.42;10.38;;;18.90;59.10;;;;;;5009835;28;20471;-55
2023/04/19 05:23:58;;;;;;;21.58;10.38;;;19.00;59.20;;;;;;5012719;28;20080;-55
2023/04/19 05:26:24;;;;;;;18.92;10.45;;;18.90;59.00;;;;;;5012593;28;20029;-51
2023/04/19 05:28:49;;;;;;;17.02;9.85;;;19.00;59.10;;;;;;5009375;28;20532;-52
2023/04/19 05:31:15;;;;;;;19.50;10.18;;;18.90;59.00;;;;;;5010472;28;20084;-51
2023/04/19 05:33:40;;;;;;;19.23;9.80;;;19.00;59.10;;;;;;5010009;28;20099;-51
2023/04/19 05:36:06;;;;;;;18.85;9.15;;;18.90;59.10;;;;;;5009546;28;20028;-49
2023/04/19 05:38:32;;;;;;;14.73;8.48;;;18.90;59.10;;;;;;5010676;28;20453;-49
2023/04/19 05:40:58;;;;;;;19.15;9.55;;;18.90;59.10;;;;;;5014486;28;20028;-58
2023/04/19 05:43:23;;;;;;;15.77;8.10;;;19.00;59.10;;;;;;5013395;28;20057;-56
2023/04/19 05:45:49;;;;;;;15.68;8.95;;;19.00;59.00;;;;;;5011321;28;20033;-52
2023/04/19 05:48:14;;;;;;;17.55;9.05;;;18.90;59.00;;;;;;5005729;28;20034;-51
2023/04/19 05:50:40;;;;;;;18.95;8.55;;;18.90;59.00;;;;;;5009715;28;20595;-57
2023/04/19 05:53:05;;;;;;;13.38;8.52;;;18.90;58.90;;;;;;5017824;28;20029;-53
2023/04/19 05:55:31;;;;;;;14.07;8.15;;;18.90;58.80;;;;;;5012141;28;20550;-51
2023/04/19 05:57:57;;;;;;;15.10;8.63;;;18.90;58.80;;;;;;5017171;28;20037;-56
2023/04/19 06:00:23;;;;;;;11.98;8.65;;;18.90;58.90;;;;;;5012615;28;20034;-52
2023/04/19 06:02:49;;;;;;;12.45;8.25;;;18.90;58.90;;;;;;5014486;28;20184;-50
2023/04/19 06:05:14;;;;;;;13.15;7.78;;;18.90;58.80;;;;;;5015442;28;20049;-54
2023/04/19 06:07:40;;;;;;;15.00;7.70;;;18.90;58.80;;;;;;5013910;28;20703;-53
2023/04/19 06:10:06;;;;;;;16.65;8.85;;;18.90;58.80;;;;;;5012230;28;20117;-55
2023/04/19 06:12:32;;;;;;;16.40;9.65;;;18.90;58.80;;;;;;5017274;28;20029;-55
2023/04/19 06:14:58;;;;;;;21.88;9.07;;;18.90;59.00;;;;;;5009958;28;20156;-52
2023/04/19 06:17:24;;;;;;;19.02;8.77;;;19.00;59.20;;;;;;5012828;28;20129;-50
2023/04/19 06:19:53;;;;;;;16.90;8.18;;;19.00;59.20;;;;;;5012072;28;20101;-56
2023/04/19 06:22:19;;;;;;;12.13;6.45;;;19.00;59.20;;;;;;5016772;28;20029;-57
2023/04/19 06:24:46;;;;;;;16.08;6.95;;;19.00;59.20;;;;;;5010780;28;20577;-57
2023/04/19 06:27:11;;;;;;;19.35;9.40;;;19.00;59.20;;;;;;5012103;28;20060;-52
2023/04/19 06:29:37;;;;;;;25.50;10.85;;;19.10;59.20;;;;;;5013324;28;20536;-56
2023/04/19 06:32:02;;;;;;;25.88;11.05;;;19.10;59.30;;;;;;5014018;28;20445;-54
2023/04/19 06:34:28;;;;;;;27.55;12.48;;;19.20;59.50;;;;;;5013644;28;20060;-49
2023/04/19 06:36:53;;;;;;;31.50;13.30;;;19.20;60.20;;;;;;5014754;28;20575;-56
2023/04/19 06:39:19;;;;;;;35.75;13.38;;;19.20;60.10;;;;;;5014097;28;20087;-49
2023/04/19 06:41:45;;;;;;;31.20;13.50;;;19.20;59.50;;;;;;5015851;28;20089;-56
2023/04/19 06:44:12;;;;;;;30.13;12.95;;;19.30;59.60;;;;;;5011200;28;20025;-53
2023/04/19 06:46:37;;;;;;;32.60;13.10;;;19.30;59.50;;;;;;5014652;28;20034;-55
2023/04/19 06:49:03;;;;;;;26.80;11.88;;;19.30;59.70;;;;;;5013259;28;20030;-55
2023/04/19 06:51:29;;;;;;;30.75;12.93;;;19.30;59.50;;;;;;5011528;28;20041;-54
2023/04/19 06:53:54;;;;;;;29.73;12.32;;;19.30;59.60;;;;;;5015928;28;20599;-48
2023/04/19 06:56:47;;;;;;;34.08;12.80;;;19.30;59.60;;;;;;5012132;28;20039;-51
2023/04/19 06:59:18;;;;;;;28.98;12.85;;;19.30;59.70;;;;;;5010929;28;20495;-54
2023/04/19 07:01:45;;;;;;;26.98;12.82;;;19.30;59.60;;;;;;5012619;28;20060;-56
2023/04/19 07:04:11;;;;;;;21.40;11.00;;;19.30;59.70;;;;;;5013960;28;20142;-49
2023/04/19 07:06:37;;;;;;;25.05;11.27;;;19.40;59.80;;;;;;5016764;28;20394;-48
2023/04/19 07:09:04;;;;;;;22.95;11.10;;;19.40;59.70;;;;;;5014358;28;20141;-48
2023/04/19 07:11:30;;;;;;;21.83;10.30;;;19.40;59.70;;;;;;5012452;28;20476;-54
2023/04/19 07:13:56;;;;;;;19.63;10.60;;;19.30;59.60;;;;;;5013757;28;20045;-60
2023/04/19 07:16:22;;;;;;;20.05;10.45;;;19.30;59.60;;;;;;5007881;28;20064;-56
2023/04/19 07:18:47;;;;;;;17.33;9.93;;;19.30;59.60;;;;;;5012494;28;20037;-48
2023/04/19 07:21:13;;;;;;;20.73;9.88;;;19.30;59.60;;;;;;5014167;28;20029;-51
2023/04/19 07:23:39;;;;;;;17.50;9.65;;;19.30;59.50;;;;;;5015034;28;20021;-54
2023/04/19 07:26:04;;;;;;;19.02;10.30;;;19.30;59.40;;;;;;5014708;28;20026;-51
2023/04/19 07:28:30;;;;;;;19.05;9.95;;;19.30;59.40;;;;;;5013004;28;20074;-55
2023/04/19 07:30:56;;;;;;;18.95;9.50;;;19.30;59.40;;;;;;5013988;28;20050;-58
2023/04/19 07:33:23;;;;;;;20.48;8.43;;;19.30;59.30;;;;;;5013600;28;20040;-51
2023/04/19 07:35:49;;;;;;;16.02;7.85;;;19.30;59.30;;;;;;5014837;28;20057;-54
2023/04/19 07:38:14;;;;;;;17.67;8.00;;;19.30;59.30;;;;;;5011134;28;21536;-51
2023/04/19 07:40:40;;;;;;;15.77;7.80;;;19.30;59.60;;;;;;5012927;28;20394;-53
2023/04/19 07:43:05;;;;;;;14.65;7.68;;;19.30;59.60;;;;;;5015407;28;20301;-59
2023/04/19 07:45:31;;;;;;;15.80;7.03;;;19.30;59.70;;;;;;5011149;28;20514;-58
2023/04/19 07:47:57;;;;;;;12.95;6.97;;;19.30;59.70;;;;;;5009135;28;20344;-51
2023/04/19 07:50:25;;;;;;;12.32;6.88;;;19.30;59.60;;;;;;5014536;28;20285;-55
2023/04/19 07:52:51;;;;;;;16.30;6.88;;;19.30;59.40;;;;;;5012953;28;20034;-51
2023/04/19 07:55:16;;;;;;;17.73;7.15;;;19.30;59.40;;;;;;5011538;28;20234;-51
2023/04/19 07:57:46;;;;;;;17.17;7.22;;;19.30;59.40;;;;;;5012923;28;20022;-51
2023/04/19 08:00:14;;;;;;;16.65;6.38;;;19.20;59.30;;;;;;5011772;28;20462;-52
2023/04/19 08:02:42;;;;;;;9.13;6.00;;;19.20;59.30;;;;;;5014338;28;20029;-54
2023/04/19 08:05:08;;;;;;;16.15;6.65;;;19.20;59.30;;;;;;5012528;28;20084;-55
2023/04/19 08:07:33;;;;;;;14.85;5.97;;;19.20;59.30;;;;;;5010757;28;20034;-50
2023/04/19 08:09:59;;;;;;;11.32;5.43;;;19.20;59.30;;;;;;5009815;28;20479;-50
2023/04/19 08:12:24;;;;;;;11.68;6.07;;;19.20;59.30;;;;;;5015246;28;20115;-51
2023/04/19 08:14:50;;;;;;;12.32;6.03;;;19.20;59.30;;;;;;5014985;28;20477;-53
2023/04/19 08:17:19;;;;;;;16.13;5.90;;;19.20;59.30;;;;;;5009048;28;20346;-56
2023/04/19 08:19:45;;;;;;;15.40;5.47;;;19.20;59.30;;;;;;5012324;28;20038;-49
2023/04/19 08:22:10;;;;;;;16.10;5.80;;;19.20;59.30;;;;;;5009268;28;20034;-56
2023/04/19 08:24:36;;;;;;;9.82;4.78;;;19.20;59.20;;;;;;5013542;28;20055;-54
2023/04/19 08:27:01;;;;;;;11.90;5.00;;;19.20;59.10;;;;;;5009375;28;20049;-49
2023/04/19 08:29:27;;;;;;;9.85;4.45;;;19.20;58.90;;;;;;5007292;28;20120;-51
2023/04/19 08:31:52;;;;;;;12.90;4.43;;;19.20;58.70;;;;;;5012702;28;20095;-51
2023/04/19 08:34:18;;;;;;;9.68;3.85;;;19.20;58.80;;;;;;5011973;28;20653;-53
2023/04/19 08:36:44;;;;;;;7.75;4.35;;;19.20;58.60;;;;;;5007551;28;20030;-51
2023/04/19 08:39:11;;;;;;;7.35;3.97;;;19.20;58.50;;;;;;5011910;28;20025;-54
2023/04/19 08:41:38;;;;;;;5.95;3.63;;;19.20;58.50;;;;;;5011090;28;20022;-55
2023/04/19 08:44:05;;;;;;;7.72;4.10;;;19.20;58.30;;;;;;5011468;28;20058;-51
2023/04/19 08:46:31;;;;;;;7.28;2.90;;;19.20;58.20;;;;;;5013598;28;20479;-53
2023/04/19 08:48:58;;;;;;;6.97;3.10;;;19.20;58.00;;;;;;5008155;28;20031;-51
2023/04/19 08:51:25;;;;;;;6.35;3.20;;;19.20;57.90;;;;;;5012461;28;20048;-50
2023/04/19 08:53:51;;;;;;;4.55;3.30;;;19.20;57.80;;;;;;5013042;28;20038;-49
2023/04/19 08:56:18;;;;;;;6.18;3.03;;;19.20;57.60;;;;;;5011978;28;20049;-52
2023/04/19 08:58:44;;;;;;;4.07;2.75;;;19.20;57.60;;;;;;5015373;28;20025;-51
2023/04/19 09:01:10;;;;;;;4.30;2.95;;;19.20;57.50;;;;;;5013250;28;20044;-55
2023/04/19 09:03:43;;;;;;;6.90;2.88;;;19.20;57.50;;;;;;5009057;28;20381;-51
2023/04/19 09:06:08;;;;;;;6.38;3.22;;;19.10;57.40;;;;;;5001537;28;20033;-49
2023/04/19 09:08:34;;;;;;;4.68;2.90;;;19.20;57.40;;;;;;5012449;28;20040;-52
2023/04/19 09:11:00;;;;;;;3.72;2.42;;;19.20;57.30;;;;;;5011858;28;20129;-51
2023/04/19 09:13:27;;;;;;;4.30;2.63;;;19.20;57.10;;;;;;5012344;28;20135;-51
2023/04/19 09:15:55;;;;;;;4.85;2.50;;;19.20;57.20;;;;;;5010696;28;20037;-55
2023/04/19 09:18:21;;;;;;;3.20;2.30;;;19.20;57.00;;;;;;5011660;28;20041;-55
2023/04/19 09:20:48;;;;;;;4.18;2.80;;;19.20;56.90;;;;;;5010445;28;20045;-50
2023/04/19 09:23:15;;;;;;;6.13;2.58;;;19.20;56.90;;;;;;5011752;28;20026;-57
2023/04/19 09:25:53;;;;;;;4.78;2.58;;;19.20;56.80;;;;;;5014671;28;20038;-56
2023/04/19 09:28:20;;;;;;;6.47;2.38;;;19.10;56.70;;;;;;5013026;28;20063;-48
2023/04/19 09:30:46;;;;;;;3.70;2.25;;;19.10;56.70;;;;;;5013220;28;20751;-55
2023/04/19 09:33:11;;;;;;;4.75;2.75;;;19.20;56.70;;;;;;5010437;28;20040;-55
2023/04/19 09:35:44;;;;;;;3.60;2.17;;;19.10;56.60;;;;;;5013531;28;20121;-48
2023/04/19 09:38:10;;;;;;;3.08;2.38;;;19.10;56.60;;;;;;5010315;28;20041;-51
2023/04/19 09:40:37;;;;;;;4.13;2.35;;;19.10;56.60;;;;;;5009942;28;20042;-52
2023/04/19 09:43:03;;;;;;;7.10;2.47;;;19.10;56.50;;;;;;5010787;28;20061;-54
2023/04/19 09:45:42;;;;;;;10.27;2.45;;;19.10;56.50;;;;;;5010122;28;20053;-50
2023/04/19 09:48:09;;;;;;;8.55;2.30;;;19.10;56.60;;;;;;5013814;28;20033;-53
2023/04/19 09:50:51;;;;;;;6.38;2.80;;;19.10;56.60;;;;;;5014326;28;20461;-49
2023/04/19 09:53:20;;;;;;;4.55;2.05;;;19.10;56.60;;;;;;5012739;28;20040;-54
2023/04/19 09:55:46;;;;;;;6.53;3.40;;;19.20;56.80;;;;;;5012967;28;20708;-48
2023/04/19 09:58:12;;;;;;;7.50;3.15;;;19.20;57.80;;;;;;5011936;28;20116;-50
2023/04/19 10:00:40;;;;;;;9.43;3.13;;;19.20;57.20;;;;;;5012286;28;20225;-50
2023/04/19 10:03:08;;;;;;;8.35;3.22;;;19.20;57.40;;;;;;5013142;28;20458;-55
2023/04/19 10:05:33;;;;;;;21.85;3.72;;;19.20;58.00;;;;;;5007584;28;20399;-50
2023/04/19 10:08:02;;;;;;;7.60;2.83;;;19.20;57.40;;;;;;5008808;28;20034;-56
2023/04/19 10:10:29;;;;;;;5.60;2.70;;;19.20;57.50;;;;;;5008197;28;20035;-49
2023/04/19 10:12:56;;;;;;;6.22;2.92;;;19.20;57.50;;;;;;5013887;28;20034;-54
2023/04/19 10:15:22;;;;;;;4.28;2.58;;;19.20;57.50;;;;;;5009004;28;20375;-50
2023/04/19 10:17:48;;;;;;;6.70;2.85;;;19.20;57.60;;;;;;5012939;28;20037;-58
2023/04/19 10:20:22;;;;;;;4.32;2.30;;;19.20;57.60;;;;;;5014387;28;20038;-47
2023/04/19 10:22:48;;;;;;;2.90;2.38;;;19.20;57.60;;;;;;5011340;28;20029;-52
2023/04/19 10:25:15;;;;;;;6.03;2.50;;;19.20;57.60;;;;;;5012976;28;20040;-48
2023/04/19 10:27:45;;;;;;;5.47;2.72;;;19.20;57.60;;;;;;5014815;28;20108;-51
2023/04/19 10:30:25;;;;;;;8.23;2.28;;;19.20;57.60;;;;;;5010746;28;20037;-52
2023/04/19 10:32:54;;;;;;;5.50;2.35;;;19.20;57.60;;;;;;5012358;28;20493;-53
2023/04/19 10:35:22;;;;;;;5.45;2.63;;;19.20;57.50;;;;;;5011946;28;20351;-51
2023/04/19 10:38:09;;;;;;;3.38;2.20;;;19.20;57.40;;;;;;5010054;28;20030;-48
2023/04/19 10:40:55;;;;;;;6.20;2.17;;;19.20;57.50;;;;;;5011178;28;20057;-50
2023/04/19 10:43:21;;;;;;;4.75;3.08;;;19.20;57.30;;;;;;5014514;28;20100;-53
2023/04/19 10:45:47;;;;;;;8.27;2.47;;;19.20;57.30;;;;;;5011997;28;20259;-53
2023/04/19 10:48:34;;;;;;;3.67;2.25;;;19.20;57.20;;;;;;5016377;28;20162;-55
2023/04/19 10:51:14;;;;;;;4.15;2.47;;;19.20;57.20;;;;;;5012092;28;20697;-54
2023/04/19 10:53:49;;;;;;;4.13;2.40;;;19.20;57.10;;;;;;5017478;28;20483;-58
2023/04/19 10:56:17;;;;;;;3.40;2.15;;;19.20;57.00;;;;;;5016652;28;20029;-51
2023/04/19 10:59:09;;;;;;;2.92;2.13;;;19.20;57.00;;;;;;5013056;28;20053;-48
2023/04/19 11:01:44;;;;;;;3.28;2.28;;;19.20;57.00;;;;;;5013009;28;20053;-55
2023/04/19 11:04:14;;;;;;;;;;;19.20;56.90;;;;;;5014649;28;20045;-51
2023/04/19 11:06:51;;;;;;;4.68;2.15;;;19.20;56.90;;;;;;5023021;28;19967;-54
2023/04/19 11:09:25;;;;;;;3.97;2.28;;;19.20;56.80;;;;;;5005545;28;20034;-48
2023/04/19 11:11:52;;;;;;;4.53;2.35;;;19.20;56.80;;;;;;5013725;28;20447;-50
2023/04/19 11:14:19;;;;;;;3.85;2.50;;;19.20;56.70;;;;;;5015147;28;20334;-48
2023/04/19 11:16:45;;;;;;;3.20;2.47;;;19.20;56.70;;;;;;5015895;28;20565;-51
2023/04/19 11:19:14;;;;;;;3.45;2.15;;;19.20;56.60;;;;;;5014386;28;20021;-52
2023/04/19 11:21:40;;;;;;;3.00;2.20;;;19.20;56.60;;;;;;5007189;28;20393;-51
2023/04/19 11:24:09;;;;;;;3.38;2.10;;;19.20;56.60;;;;;;5019139;28;20171;-52
2023/04/19 11:26:35;;;;;;;5.30;2.53;;;19.20;56.60;;;;;;5011802;28;20026;-53
2023/04/19 11:29:00;;;;;;;3.25;2.10;;;19.20;56.60;;;;;;5012853;28;20100;-53
2023/04/19 11:31:26;;;;;;;4.55;1.95;;;19.20;56.60;;;;;;5015601;28;20033;-52
2023/04/19 11:33:52;;;;;;;4.13;2.13;;;19.20;56.60;;;;;;5015782;28;20030;-49
2023/04/19 11:36:18;;;;;;;2.58;2.13;;;19.20;56.60;;;;;;5014585;28;20037;-53
2023/04/19 11:38:47;;;;;;;2.97;2.15;;;19.20;56.60;;;;;;5008167;28;20041;-48
2023/04/19 11:41:13;;;;;;;4.85;2.40;;;19.20;56.50;;;;;;5012349;28;20036;-50
2023/04/19 11:43:40;;;;;;;4.07;2.38;;;19.20;56.40;;;;;;5010120;28;20388;-52
2023/04/19 11:46:07;;;;;;;4.93;2.47;;;19.20;56.50;;;;;;5010618;28;20030;-55
2023/04/19 11:48:33;;;;;;;3.78;2.05;;;19.20;56.50;;;;;;5014876;28;20057;-53
2023/04/19 11:51:00;;;;;;;4.38;2.38;;;19.10;56.30;;;;;;5013212;28;20088;-54
2023/04/19 11:53:27;;;;;;;4.40;2.50;;;19.10;56.30;;;;;;5014554;28;20487;-54
2023/04/19 11:56:02;;;;;;;2.78;1.98;;;19.10;56.30;;;;;;5011601;28;20037;-49
2023/04/19 11:58:34;;;;;;;4.15;2.28;;;19.10;56.30;;;;;;5011003;28;20029;-50
2023/04/19 12:01:11;;;;;;;3.08;2.50;;;19.10;56.30;;;;;;5004510;28;20045;-49
2023/04/19 12:03:43;;;;;;;4.15;2.38;;;19.10;56.40;;;;;;5010083;28;20128;-53
2023/04/19 12:06:17;;;;;;;4.75;2.22;;;19.10;56.50;;;;;;5011427;28;20191;-46
2023/04/19 12:08:46;;;;;;;6.25;2.65;;;19.10;56.60;;;;;;5013280;28;20105;-49
2023/04/19 12:11:12;;;;;;;6.25;2.40;;;19.10;56.90;;;;;;5012800;28;20040;-49
2023/04/19 12:13:39;;;;;;;5.05;2.78;;;19.10;57.40;;;;;;5011631;28;20029;-55
2023/04/19 12:16:05;;;;;;;11.85;2.72;;;19.10;57.80;;;;;;5037010;23;20045;-50
2023/04/19 12:18:49;;;;;;;4.88;2.75;;;19.10;58.00;;;;;;5013001;28;20033;-50
2023/04/19 12:21:26;;;;;;;4.93;2.20;;;19.10;58.00;;;;;;5010792;28;20029;-51
2023/04/19 12:23:59;;;;;;;4.63;2.53;;;19.10;58.10;;;;;;5009807;28;20037;-51
2023/04/19 12:26:27;;;;;;;5.03;2.13;;;19.00;58.20;;;;;;4998285;28;20482;-47
2023/04/19 12:28:53;;;;;;;4.20;2.38;;;19.00;58.40;;;;;;5015857;28;20124;-48
2023/04/19 12:31:19;;;;;;;5.85;2.70;;;19.00;58.40;;;;;;5013532;28;20029;-50
2023/04/19 12:33:45;;;;;;;5.20;1.92;;;19.00;58.30;;;;;;5015258;28;20106;-49
2023/04/19 12:36:11;;;;;;;4.90;2.20;;;19.00;58.30;;;;;;5015753;28;20488;-54
2023/04/19 12:38:36;;;;;;;2.97;2.42;;;19.00;58.40;;;;;;5013975;28;20029;-50
2023/04/19 12:41:02;;;;;;;4.45;2.15;;;19.00;58.40;;;;;;5014947;28;20068;-50